sensor_id;sensor_type;location;lat;lon;timestamp;P1;durP1;ratioP1;P2;durP2;ratioP2
3922;SDS011;1976;51.694;6.256;2023-07-02T00:01:21;3.60;;;2.63;;
3922;SDS011;1976;51.694;6.256;2023-07-02T00:03:47;20.53;;;3.73;;
3922;SDS011;1976;51.694;6.256;2023-07-02T00:06:13;13.90;;;5.30;;
3922;SDS011;1976;51.694;6.256;2023-07-02T00:08:39;13.20;;;4.07;;
3922;SDS011;1976;51.694;6.256;2023-07-02T00:11:05;11.43;;;4.80;;
3922;SDS011;1976;51.694;6.256;2023-07-02T00:13:31;7.17;;;4.97;;
3922;SDS011;1976;51.694;6.256;2023-07-02T00:15:57;10.20;;;6.20;;
3922;SDS011;1976;51.694;6.256;2023-07-02T00:18:23;14.00;;;4.03;;
3922;SDS011;1976;51.694;6.256;2023-07-02T00:20:58;10.93;;;4.60;;
3922;SDS011;1976;51.694;6.256;2023-07-02T00:23:30;6.23;;;3.67;;
3922;SDS011;1976;51.694;6.256;2023-07-02T00:25:56;18.50;;;5.70;;
3922;SDS011;1976;51.694;6.256;2023-07-02T00:28:22;10.53;;;4.37;;
3922;SDS011;1976;51.694;6.256;2023-07-02T00:30:48;21.13;;;6.03;;
3922;SDS011;1976;51.694;6.256;2023-07-02T00:33:14;9.57;;;4.93;;
3922;SDS011;1976;51.694;6.256;2023-07-02T00:35:40;10.63;;;5.30;;
3922;SDS011;1976;51.694;6.256;2023-07-02T00:38:06;16.80;;;5.30;;
3922;SDS011;1976;51.694;6.256;2023-07-02T00:40:32;16.60;;;4.97;;
3922;SDS011;1976;51.694;6.256;2023-07-02T00:42:58;9.73;;;4.97;;
3922;SDS011;1976;51.694;6.256;2023-07-02T00:45:24;6.53;;;3.90;;
3922;SDS011;1976;51.694;6.256;2023-07-02T00:47:53;12.13;;;4.57;;
3922;SDS011;1976;51.694;6.256;2023-07-02T00:50:20;14.10;;;5.53;;
3922;SDS011;1976;51.694;6.256;2023-07-02T00:52:47;13.13;;;6.23;;
3922;SDS011;1976;51.694;6.256;2023-07-02T00:55:12;13.70;;;6.33;;
3922;SDS011;1976;51.694;6.256;2023-07-02T00:57:38;17.93;;;5.60;;
3922;SDS011;1976;51.694;6.256;2023-07-02T01:00:06;14.40;;;5.53;;
3922;SDS011;1976;51.694;6.256;2023-07-02T01:02:32;11.70;;;5.40;;
3922;SDS011;1976;51.694;6.256;2023-07-02T01:04:58;11.03;;;5.00;;
3922;SDS011;1976;51.694;6.256;2023-07-02T01:07:25;5.13;;;4.60;;
3922;SDS011;1976;51.694;6.256;2023-07-02T01:09:51;7.70;;;5.13;;
3922;SDS011;1976;51.694;6.256;2023-07-02T01:12:17;9.43;;;6.10;;
3922;SDS011;1976;51.694;6.256;2023-07-02T01:14:51;8.47;;;4.07;;
3922;SDS011;1976;51.694;6.256;2023-07-02T01:17:18;8.87;;;5.47;;
3922;SDS011;1976;51.694;6.256;2023-07-02T01:22:11;12.00;;;6.10;;
3922;SDS011;1976;51.694;6.256;2023-07-02T01:24:38;14.47;;;7.00;;
3922;SDS011;1976;51.694;6.256;2023-07-02T01:27:05;24.43;;;5.93;;
3922;SDS011;1976;51.694;6.256;2023-07-02T01:29:31;21.47;;;8.57;;
3922;SDS011;1976;51.694;6.256;2023-07-02T01:31:57;15.37;;;4.90;;
3922;SDS011;1976;51.694;6.256;2023-07-02T01:34:23;18.23;;;6.43;;
3922;SDS011;1976;51.694;6.256;2023-07-02T01:36:49;12.80;;;6.10;;
3922;SDS011;1976;51.694;6.256;2023-07-02T01:39:15;13.83;;;7.60;;
3922;SDS011;1976;51.694;6.256;2023-07-02T01:42:23;15.10;;;6.43;;
3922;SDS011;1976;51.694;6.256;2023-07-02T01:44:34;19.27;;;7.13;;
3922;SDS011;1976;51.694;6.256;2023-07-02T01:47:00;12.93;;;6.47;;
3922;SDS011;1976;51.694;6.256;2023-07-02T01:49:26;16.23;;;7.57;;
3922;SDS011;1976;51.694;6.256;2023-07-02T01:51:52;16.60;;;7.43;;
3922;SDS011;1976;51.694;6.256;2023-07-02T01:54:18;21.53;;;7.67;;
3922;SDS011;1976;51.694;6.256;2023-07-02T01:56:45;18.87;;;6.90;;
3922;SDS011;1976;51.694;6.256;2023-07-02T01:59:11;14.77;;;5.87;;
3922;SDS011;1976;51.694;6.256;2023-07-02T02:01:38;21.73;;;7.70;;
3922;SDS011;1976;51.694;6.256;2023-07-02T02:04:07;24.83;;;8.37;;
3922;SDS011;1976;51.694;6.256;2023-07-02T02:06:33;15.60;;;6.43;;
3922;SDS011;1976;51.694;6.256;2023-07-02T02:09:00;22.37;;;6.83;;
3922;SDS011;1976;51.694;6.256;2023-07-02T02:11:26;21.70;;;6.70;;
3922;SDS011;1976;51.694;6.256;2023-07-02T02:13:52;18.33;;;7.53;;
3922;SDS011;1976;51.694;6.256;2023-07-02T02:16:18;25.60;;;6.33;;
3922;SDS011;1976;51.694;6.256;2023-07-02T02:18:44;19.57;;;6.90;;
3922;SDS011;1976;51.694;6.256;2023-07-02T02:21:10;22.10;;;5.63;;
3922;SDS011;1976;51.694;6.256;2023-07-02T02:23:36;19.90;;;7.17;;
3922;SDS011;1976;51.694;6.256;2023-07-02T02:26:02;21.33;;;6.40;;
3922;SDS011;1976;51.694;6.256;2023-07-02T02:28:28;16.90;;;5.90;;
3922;SDS011;1976;51.694;6.256;2023-07-02T02:30:54;18.33;;;6.63;;
3922;SDS011;1976;51.694;6.256;2023-07-02T02:33:21;16.10;;;5.87;;
3922;SDS011;1976;51.694;6.256;2023-07-02T02:35:47;15.63;;;5.23;;
3922;SDS011;1976;51.694;6.256;2023-07-02T02:38:13;27.33;;;6.40;;
3922;SDS011;1976;51.694;6.256;2023-07-02T02:40:39;22.67;;;5.97;;
3922;SDS011;1976;51.694;6.256;2023-07-02T02:43:06;21.53;;;6.20;;
3922;SDS011;1976;51.694;6.256;2023-07-02T02:45:31;11.63;;;5.50;;
3922;SDS011;1976;51.694;6.256;2023-07-02T02:47:57;16.53;;;6.53;;
3922;SDS011;1976;51.694;6.256;2023-07-02T02:50:23;21.47;;;6.40;;
3922;SDS011;1976;51.694;6.256;2023-07-02T02:52:49;17.60;;;6.77;;
3922;SDS011;1976;51.694;6.256;2023-07-02T02:55:15;8.73;;;5.60;;
3922;SDS011;1976;51.694;6.256;2023-07-02T02:57:41;28.83;;;6.80;;
3922;SDS011;1976;51.694;6.256;2023-07-02T03:00:08;25.23;;;6.60;;
3922;SDS011;1976;51.694;6.256;2023-07-02T03:02:34;18.50;;;6.50;;
3922;SDS011;1976;51.694;6.256;2023-07-02T03:05:01;17.00;;;7.40;;
3922;SDS011;1976;51.694;6.256;2023-07-02T03:07:27;23.97;;;7.90;;
3922;SDS011;1976;51.694;6.256;2023-07-02T03:09:53;34.93;;;10.80;;
3922;SDS011;1976;51.694;6.256;2023-07-02T03:12:19;23.97;;;11.80;;
3922;SDS011;1976;51.694;6.256;2023-07-02T03:14:45;22.17;;;9.13;;
3922;SDS011;1976;51.694;6.256;2023-07-02T03:17:12;26.50;;;8.63;;
3922;SDS011;1976;51.694;6.256;2023-07-02T03:19:39;18.23;;;7.60;;
3922;SDS011;1976;51.694;6.256;2023-07-02T03:22:05;17.43;;;6.40;;
3922;SDS011;1976;51.694;6.256;2023-07-02T03:24:30;14.60;;;6.90;;
3922;SDS011;1976;51.694;6.256;2023-07-02T03:26:56;19.27;;;7.17;;
3922;SDS011;1976;51.694;6.256;2023-07-02T03:29:21;24.23;;;7.40;;
3922;SDS011;1976;51.694;6.256;2023-07-02T03:31:47;12.67;;;6.87;;
3922;SDS011;1976;51.694;6.256;2023-07-02T03:34:13;14.30;;;7.40;;
3922;SDS011;1976;51.694;6.256;2023-07-02T03:36:39;19.00;;;7.20;;
3922;SDS011;1976;51.694;6.256;2023-07-02T03:39:05;15.57;;;5.90;;
3922;SDS011;1976;51.694;6.256;2023-07-02T03:41:31;20.50;;;7.10;;
3922;SDS011;1976;51.694;6.256;2023-07-02T03:43:57;11.83;;;6.30;;
3922;SDS011;1976;51.694;6.256;2023-07-02T03:46:23;12.17;;;6.30;;
3922;SDS011;1976;51.694;6.256;2023-07-02T03:48:49;14.80;;;6.47;;
3922;SDS011;1976;51.694;6.256;2023-07-02T03:51:15;30.00;;;6.43;;
3922;SDS011;1976;51.694;6.256;2023-07-02T03:53:41;13.00;;;6.70;;
3922;SDS011;1976;51.694;6.256;2023-07-02T03:56:08;14.33;;;6.77;;
3922;SDS011;1976;51.694;6.256;2023-07-02T03:58:34;19.13;;;6.87;;
3922;SDS011;1976;51.694;6.256;2023-07-02T04:01:00;23.07;;;8.00;;
3922;SDS011;1976;51.694;6.256;2023-07-02T04:03:26;31.93;;;10.00;;
3922;SDS011;1976;51.694;6.256;2023-07-02T04:05:52;35.53;;;9.93;;
3922;SDS011;1976;51.694;6.256;2023-07-02T04:08:18;29.03;;;11.13;;
3922;SDS011;1976;51.694;6.256;2023-07-02T04:10:46;20.40;;;10.40;;
3922;SDS011;1976;51.694;6.256;2023-07-02T04:13:12;24.30;;;10.90;;
3922;SDS011;1976;51.694;6.256;2023-07-02T04:15:38;27.07;;;10.37;;
3922;SDS011;1976;51.694;6.256;2023-07-02T04:18:04;31.27;;;11.30;;
3922;SDS011;1976;51.694;6.256;2023-07-02T04:20:30;21.73;;;11.30;;
3922;SDS011;1976;51.694;6.256;2023-07-02T04:22:56;21.03;;;10.60;;
3922;SDS011;1976;51.694;6.256;2023-07-02T04:25:22;22.20;;;11.27;;
3922;SDS011;1976;51.694;6.256;2023-07-02T04:27:49;23.33;;;12.80;;
3922;SDS011;1976;51.694;6.256;2023-07-02T04:30:15;30.40;;;12.53;;
3922;SDS011;1976;51.694;6.256;2023-07-02T04:32:40;22.40;;;11.30;;
3922;SDS011;1976;51.694;6.256;2023-07-02T04:35:09;33.57;;;12.53;;
3922;SDS011;1976;51.694;6.256;2023-07-02T04:37:36;29.77;;;11.80;;
3922;SDS011;1976;51.694;6.256;2023-07-02T04:40:02;42.27;;;13.17;;
3922;SDS011;1976;51.694;6.256;2023-07-02T04:42:35;33.43;;;13.80;;
3922;SDS011;1976;51.694;6.256;2023-07-02T04:45:03;31.30;;;12.07;;
3922;SDS011;1976;51.694;6.256;2023-07-02T04:47:29;30.77;;;13.23;;
3922;SDS011;1976;51.694;6.256;2023-07-02T04:49:55;26.30;;;12.37;;
3922;SDS011;1976;51.694;6.256;2023-07-02T04:52:21;32.83;;;12.30;;
3922;SDS011;1976;51.694;6.256;2023-07-02T04:54:47;24.83;;;11.27;;
3922;SDS011;1976;51.694;6.256;2023-07-02T04:57:13;37.70;;;13.50;;
3922;SDS011;1976;51.694;6.256;2023-07-02T04:59:40;32.83;;;12.60;;
3922;SDS011;1976;51.694;6.256;2023-07-02T05:02:06;21.57;;;11.10;;
3922;SDS011;1976;51.694;6.256;2023-07-02T05:04:32;21.80;;;11.13;;
3922;SDS011;1976;51.694;6.256;2023-07-02T05:06:59;28.77;;;11.00;;
3922;SDS011;1976;51.694;6.256;2023-07-02T05:09:25;27.20;;;10.87;;
3922;SDS011;1976;51.694;6.256;2023-07-02T05:11:51;21.40;;;11.40;;
3922;SDS011;1976;51.694;6.256;2023-07-02T05:14:17;27.43;;;11.53;;
3922;SDS011;1976;51.694;6.256;2023-07-02T05:16:43;21.97;;;10.60;;
3922;SDS011;1976;51.694;6.256;2023-07-02T05:19:09;21.60;;;10.30;;
3922;SDS011;1976;51.694;6.256;2023-07-02T05:21:35;21.30;;;10.57;;
3922;SDS011;1976;51.694;6.256;2023-07-02T05:24:01;25.23;;;10.63;;
3922;SDS011;1976;51.694;6.256;2023-07-02T05:26:27;25.90;;;10.67;;
3922;SDS011;1976;51.694;6.256;2023-07-02T05:28:53;27.47;;;10.17;;
3922;SDS011;1976;51.694;6.256;2023-07-02T05:31:18;27.80;;;10.53;;
3922;SDS011;1976;51.694;6.256;2023-07-02T05:33:44;36.83;;;12.00;;
3922;SDS011;1976;51.694;6.256;2023-07-02T05:36:10;32.23;;;11.30;;
3922;SDS011;1976;51.694;6.256;2023-07-02T05:38:36;35.37;;;10.27;;
3922;SDS011;1976;51.694;6.256;2023-07-02T05:41:02;26.77;;;11.10;;
3922;SDS011;1976;51.694;6.256;2023-07-02T05:43:29;29.03;;;11.30;;
3922;SDS011;1976;51.694;6.256;2023-07-02T05:45:57;22.03;;;7.70;;
3922;SDS011;1976;51.694;6.256;2023-07-02T05:48:27;30.93;;;9.90;;
3922;SDS011;1976;51.694;6.256;2023-07-02T05:50:53;27.47;;;10.10;;
3922;SDS011;1976;51.694;6.256;2023-07-02T05:53:19;23.43;;;8.77;;
3922;SDS011;1976;51.694;6.256;2023-07-02T05:55:45;19.30;;;8.50;;
3922;SDS011;1976;51.694;6.256;2023-07-02T05:58:12;27.77;;;9.00;;
3922;SDS011;1976;51.694;6.256;2023-07-02T06:00:38;22.17;;;8.40;;
3922;SDS011;1976;51.694;6.256;2023-07-02T06:03:06;23.40;;;9.23;;
3922;SDS011;1976;51.694;6.256;2023-07-02T06:05:32;20.47;;;8.47;;
3922;SDS011;1976;51.694;6.256;2023-07-02T06:07:58;16.33;;;7.57;;
3922;SDS011;1976;51.694;6.256;2023-07-02T06:10:24;25.37;;;9.80;;
3922;SDS011;1976;51.694;6.256;2023-07-02T06:12:50;21.37;;;8.53;;
3922;SDS011;1976;51.694;6.256;2023-07-02T06:15:17;22.00;;;9.60;;
3922;SDS011;1976;51.694;6.256;2023-07-02T06:17:43;23.57;;;7.93;;
3922;SDS011;1976;51.694;6.256;2023-07-02T06:20:09;30.93;;;9.97;;
3922;SDS011;1976;51.694;6.256;2023-07-02T06:22:35;30.03;;;10.90;;
3922;SDS011;1976;51.694;6.256;2023-07-02T06:25:01;31.83;;;10.10;;
3922;SDS011;1976;51.694;6.256;2023-07-02T06:27:27;28.37;;;9.60;;
3922;SDS011;1976;51.694;6.256;2023-07-02T06:29:53;22.90;;;8.23;;
3922;SDS011;1976;51.694;6.256;2023-07-02T06:32:19;28.17;;;9.93;;
3922;SDS011;1976;51.694;6.256;2023-07-02T06:34:45;26.50;;;9.13;;
3922;SDS011;1976;51.694;6.256;2023-07-02T06:37:11;27.83;;;8.10;;
3922;SDS011;1976;51.694;6.256;2023-07-02T06:39:37;25.87;;;9.13;;
3922;SDS011;1976;51.694;6.256;2023-07-02T06:42:03;24.03;;;9.17;;
3922;SDS011;1976;51.694;6.256;2023-07-02T06:44:29;14.93;;;6.13;;
3922;SDS011;1976;51.694;6.256;2023-07-02T06:46:55;31.17;;;9.83;;
3922;SDS011;1976;51.694;6.256;2023-07-02T06:49:21;24.10;;;8.07;;
3922;SDS011;1976;51.694;6.256;2023-07-02T06:51:47;22.33;;;8.37;;
3922;SDS011;1976;51.694;6.256;2023-07-02T06:54:13;20.80;;;7.60;;
3922;SDS011;1976;51.694;6.256;2023-07-02T06:56:39;22.77;;;7.73;;
3922;SDS011;1976;51.694;6.256;2023-07-02T06:59:05;20.97;;;8.83;;
3922;SDS011;1976;51.694;6.256;2023-07-02T07:01:31;18.73;;;7.40;;
3922;SDS011;1976;51.694;6.256;2023-07-02T07:03:57;14.27;;;6.00;;
3922;SDS011;1976;51.694;6.256;2023-07-02T07:06:25;21.87;;;7.17;;
3922;SDS011;1976;51.694;6.256;2023-07-02T07:08:50;15.40;;;6.77;;
3922;SDS011;1976;51.694;6.256;2023-07-02T07:11:16;36.77;;;7.80;;
3922;SDS011;1976;51.694;6.256;2023-07-02T07:13:42;17.10;;;5.43;;
3922;SDS011;1976;51.694;6.256;2023-07-02T07:16:09;24.03;;;7.77;;
3922;SDS011;1976;51.694;6.256;2023-07-02T07:18:35;16.47;;;6.93;;
3922;SDS011;1976;51.694;6.256;2023-07-02T07:21:00;12.87;;;5.40;;
3922;SDS011;1976;51.694;6.256;2023-07-02T07:23:26;21.87;;;6.93;;
3922;SDS011;1976;51.694;6.256;2023-07-02T07:25:52;16.30;;;7.17;;
3922;SDS011;1976;51.694;6.256;2023-07-02T07:28:18;15.50;;;6.50;;
3922;SDS011;1976;51.694;6.256;2023-07-02T07:30:44;16.83;;;6.33;;
3922;SDS011;1976;51.694;6.256;2023-07-02T07:33:10;23.53;;;6.40;;
3922;SDS011;1976;51.694;6.256;2023-07-02T07:35:36;22.83;;;6.90;;
3922;SDS011;1976;51.694;6.256;2023-07-02T07:38:02;14.20;;;5.60;;
3922;SDS011;1976;51.694;6.256;2023-07-02T07:40:28;8.07;;;4.17;;
3922;SDS011;1976;51.694;6.256;2023-07-02T07:42:54;16.53;;;5.33;;
3922;SDS011;1976;51.694;6.256;2023-07-02T07:45:20;16.73;;;6.53;;
3922;SDS011;1976;51.694;6.256;2023-07-02T07:47:47;20.60;;;5.20;;
3922;SDS011;1976;51.694;6.256;2023-07-02T07:50:12;14.03;;;5.33;;
3922;SDS011;1976;51.694;6.256;2023-07-02T07:52:39;12.00;;;5.50;;
3922;SDS011;1976;51.694;6.256;2023-07-02T07:55:06;17.20;;;4.70;;
3922;SDS011;1976;51.694;6.256;2023-07-02T07:57:32;21.50;;;5.67;;
3922;SDS011;1976;51.694;6.256;2023-07-02T07:59:58;17.70;;;6.00;;
3922;SDS011;1976;51.694;6.256;2023-07-02T08:02:24;12.00;;;5.07;;
3922;SDS011;1976;51.694;6.256;2023-07-02T08:04:50;16.60;;;5.40;;
3922;SDS011;1976;51.694;6.256;2023-07-02T08:07:16;15.17;;;5.00;;
3922;SDS011;1976;51.694;6.256;2023-07-02T08:09:42;17.63;;;5.37;;
3922;SDS011;1976;51.694;6.256;2023-07-02T08:12:08;12.97;;;5.07;;
3922;SDS011;1976;51.694;6.256;2023-07-02T08:14:34;13.50;;;5.40;;
3922;SDS011;1976;51.694;6.256;2023-07-02T08:17:03;9.13;;;4.90;;
3922;SDS011;1976;51.694;6.256;2023-07-02T08:19:29;21.63;;;5.70;;
3922;SDS011;1976;51.694;6.256;2023-07-02T08:21:54;12.17;;;4.10;;
3922;SDS011;1976;51.694;6.256;2023-07-02T08:24:20;12.03;;;4.47;;
3922;SDS011;1976;51.694;6.256;2023-07-02T08:26:46;9.93;;;4.47;;
3922;SDS011;1976;51.694;6.256;2023-07-02T08:29:14;19.00;;;5.70;;
3922;SDS011;1976;51.694;6.256;2023-07-02T08:31:40;7.03;;;3.30;;
3922;SDS011;1976;51.694;6.256;2023-07-02T08:34:06;16.03;;;4.97;;
3922;SDS011;1976;51.694;6.256;2023-07-02T08:36:32;21.33;;;5.80;;
3922;SDS011;1976;51.694;6.256;2023-07-02T08:38:58;11.43;;;5.00;;
3922;SDS011;1976;51.694;6.256;2023-07-02T08:41:24;11.47;;;5.37;;
3922;SDS011;1976;51.694;6.256;2023-07-02T08:43:50;11.10;;;4.90;;
3922;SDS011;1976;51.694;6.256;2023-07-02T08:46:17;9.77;;;4.90;;
3922;SDS011;1976;51.694;6.256;2023-07-02T08:48:43;10.43;;;5.53;;
3922;SDS011;1976;51.694;6.256;2023-07-02T08:51:09;10.07;;;3.87;;
3922;SDS011;1976;51.694;6.256;2023-07-02T08:53:35;14.23;;;4.60;;
3922;SDS011;1976;51.694;6.256;2023-07-02T08:56:01;16.23;;;5.07;;
3922;SDS011;1976;51.694;6.256;2023-07-02T08:58:28;5.60;;;3.57;;
3922;SDS011;1976;51.694;6.256;2023-07-02T09:01:03;30.73;;;5.30;;
3922;SDS011;1976;51.694;6.256;2023-07-02T09:03:30;11.43;;;4.60;;
3922;SDS011;1976;51.694;6.256;2023-07-02T09:05:56;11.97;;;5.50;;
3922;SDS011;1976;51.694;6.256;2023-07-02T09:08:22;11.70;;;4.63;;
3922;SDS011;1976;51.694;6.256;2023-07-02T09:10:49;14.27;;;4.43;;
3922;SDS011;1976;51.694;6.256;2023-07-02T09:13:15;6.17;;;3.03;;
3922;SDS011;1976;51.694;6.256;2023-07-02T09:15:41;12.33;;;4.07;;
3922;SDS011;1976;51.694;6.256;2023-07-02T09:20:42;11.97;;;4.50;;
3922;SDS011;1976;51.694;6.256;2023-07-02T09:23:08;15.97;;;4.63;;
3922;SDS011;1976;51.694;6.256;2023-07-02T09:25:38;15.43;;;5.30;;
3922;SDS011;1976;51.694;6.256;2023-07-02T09:28:20;15.20;;;3.83;;
3922;SDS011;1976;51.694;6.256;2023-07-02T09:30:53;12.40;;;5.10;;
3922;SDS011;1976;51.694;6.256;2023-07-02T09:33:19;14.50;;;5.07;;
3922;SDS011;1976;51.694;6.256;2023-07-02T09:35:45;13.30;;;5.90;;
3922;SDS011;1976;51.694;6.256;2023-07-02T09:38:12;15.93;;;4.40;;
3922;SDS011;1976;51.694;6.256;2023-07-02T09:40:43;15.07;;;5.10;;
3922;SDS011;1976;51.694;6.256;2023-07-02T09:43:11;10.20;;;3.87;;
3922;SDS011;1976;51.694;6.256;2023-07-02T09:45:37;7.50;;;3.90;;
3922;SDS011;1976;51.694;6.256;2023-07-02T09:48:04;15.93;;;3.97;;
3922;SDS011;1976;51.694;6.256;2023-07-02T09:50:31;9.10;;;3.57;;
3922;SDS011;1976;51.694;6.256;2023-07-02T09:52:57;19.33;;;4.50;;
3922;SDS011;1976;51.694;6.256;2023-07-02T09:55:24;9.43;;;2.80;;
3922;SDS011;1976;51.694;6.256;2023-07-02T09:57:50;6.97;;;4.00;;
3922;SDS011;1976;51.694;6.256;2023-07-02T10:00:16;9.27;;;3.13;;
3922;SDS011;1976;51.694;6.256;2023-07-02T10:02:47;11.13;;;3.90;;
3922;SDS011;1976;51.694;6.256;2023-07-02T10:05:24;9.40;;;4.40;;
3922;SDS011;1976;51.694;6.256;2023-07-02T10:07:50;12.83;;;5.27;;
3922;SDS011;1976;51.694;6.256;2023-07-02T10:10:29;9.10;;;3.77;;
3922;SDS011;1976;51.694;6.256;2023-07-02T10:12:55;13.13;;;4.17;;
3922;SDS011;1976;51.694;6.256;2023-07-02T10:15:28;10.60;;;3.97;;
3922;SDS011;1976;51.694;6.256;2023-07-02T10:17:55;9.90;;;4.37;;
3922;SDS011;1976;51.694;6.256;2023-07-02T10:20:30;13.33;;;4.37;;
3922;SDS011;1976;51.694;6.256;2023-07-02T10:22:57;12.17;;;4.70;;
3922;SDS011;1976;51.694;6.256;2023-07-02T10:25:27;10.30;;;4.47;;
3922;SDS011;1976;51.694;6.256;2023-07-02T10:27:54;9.27;;;4.13;;
3922;SDS011;1976;51.694;6.256;2023-07-02T10:30:29;8.90;;;4.20;;
3922;SDS011;1976;51.694;6.256;2023-07-02T10:33:06;9.90;;;4.53;;
3922;SDS011;1976;51.694;6.256;2023-07-02T10:35:33;14.83;;;4.53;;
3922;SDS011;1976;51.694;6.256;2023-07-02T10:37:59;7.77;;;4.37;;
3922;SDS011;1976;51.694;6.256;2023-07-02T10:40:25;12.27;;;4.83;;
3922;SDS011;1976;51.694;6.256;2023-07-02T10:42:52;12.07;;;4.70;;
3922;SDS011;1976;51.694;6.256;2023-07-02T10:45:19;12.80;;;4.03;;
3922;SDS011;1976;51.694;6.256;2023-07-02T10:47:45;9.77;;;4.10;;
3922;SDS011;1976;51.694;6.256;2023-07-02T10:50:16;6.43;;;3.50;;
3922;SDS011;1976;51.694;6.256;2023-07-02T10:52:42;13.03;;;4.50;;
3922;SDS011;1976;51.694;6.256;2023-07-02T10:55:08;11.33;;;4.93;;
3922;SDS011;1976;51.694;6.256;2023-07-02T10:57:34;13.97;;;4.10;;
3922;SDS011;1976;51.694;6.256;2023-07-02T11:00:06;9.00;;;4.20;;
3922;SDS011;1976;51.694;6.256;2023-07-02T11:02:36;10.70;;;4.17;;
3922;SDS011;1976;51.694;6.256;2023-07-02T11:05:03;5.20;;;3.30;;
3922;SDS011;1976;51.694;6.256;2023-07-02T11:07:31;16.07;;;5.37;;
3922;SDS011;1976;51.694;6.256;2023-07-02T11:09:57;13.33;;;3.97;;
3922;SDS011;1976;51.694;6.256;2023-07-02T11:12:30;7.40;;;4.30;;
3922;SDS011;1976;51.694;6.256;2023-07-02T11:15:09;6.87;;;3.67;;
3922;SDS011;1976;51.694;6.256;2023-07-02T11:17:35;13.83;;;4.53;;
3922;SDS011;1976;51.694;6.256;2023-07-02T11:20:02;6.27;;;3.50;;
3922;SDS011;1976;51.694;6.256;2023-07-02T11:22:33;15.97;;;3.30;;
3922;SDS011;1976;51.694;6.256;2023-07-02T11:25:16;16.47;;;5.43;;
3922;SDS011;1976;51.694;6.256;2023-07-02T11:27:42;12.57;;;3.77;;
3922;SDS011;1976;51.694;6.256;2023-07-02T11:30:08;7.60;;;4.27;;
3922;SDS011;1976;51.694;6.256;2023-07-02T11:32:35;11.73;;;4.70;;
3922;SDS011;1976;51.694;6.256;2023-07-02T11:35:13;8.20;;;3.80;;
3922;SDS011;1976;51.694;6.256;2023-07-02T11:37:40;12.73;;;5.20;;
3922;SDS011;1976;51.694;6.256;2023-07-02T11:40:06;10.10;;;4.03;;
3922;SDS011;1976;51.694;6.256;2023-07-02T11:42:32;8.30;;;3.40;;
3922;SDS011;1976;51.694;6.256;2023-07-02T11:44:58;9.93;;;4.00;;
3922;SDS011;1976;51.694;6.256;2023-07-02T11:47:24;7.73;;;3.73;;
3922;SDS011;1976;51.694;6.256;2023-07-02T11:49:52;8.20;;;3.83;;
3922;SDS011;1976;51.694;6.256;2023-07-02T11:52:19;11.90;;;5.20;;
3922;SDS011;1976;51.694;6.256;2023-07-02T11:54:45;12.10;;;4.83;;
3922;SDS011;1976;51.694;6.256;2023-07-02T11:57:11;6.33;;;3.80;;
3922;SDS011;1976;51.694;6.256;2023-07-02T11:59:37;13.80;;;3.70;;
3922;SDS011;1976;51.694;6.256;2023-07-02T12:02:05;9.23;;;3.73;;
3922;SDS011;1976;51.694;6.256;2023-07-02T12:04:30;9.63;;;3.87;;
3922;SDS011;1976;51.694;6.256;2023-07-02T12:06:56;10.33;;;4.53;;
3922;SDS011;1976;51.694;6.256;2023-07-02T12:09:22;10.60;;;4.20;;
3922;SDS011;1976;51.694;6.256;2023-07-02T12:11:48;13.33;;;4.70;;
3922;SDS011;1976;51.694;6.256;2023-07-02T12:14:14;7.83;;;3.63;;
3922;SDS011;1976;51.694;6.256;2023-07-02T12:16:40;16.20;;;5.37;;
3922;SDS011;1976;51.694;6.256;2023-07-02T12:19:06;10.90;;;4.90;;
3922;SDS011;1976;51.694;6.256;2023-07-02T12:21:32;9.83;;;5.50;;
3922;SDS011;1976;51.694;6.256;2023-07-02T12:23:58;18.43;;;5.73;;
3922;SDS011;1976;51.694;6.256;2023-07-02T12:26:24;8.97;;;4.80;;
3922;SDS011;1976;51.694;6.256;2023-07-02T12:28:50;11.03;;;5.00;;
3922;SDS011;1976;51.694;6.256;2023-07-02T12:31:16;10.67;;;4.30;;
3922;SDS011;1976;51.694;6.256;2023-07-02T12:33:42;8.90;;;3.10;;
3922;SDS011;1976;51.694;6.256;2023-07-02T12:36:08;17.10;;;5.83;;
3922;SDS011;1976;51.694;6.256;2023-07-02T12:38:34;11.73;;;5.07;;
3922;SDS011;1976;51.694;6.256;2023-07-02T12:41:00;11.50;;;5.43;;
3922;SDS011;1976;51.694;6.256;2023-07-02T12:43:26;17.83;;;5.43;;
3922;SDS011;1976;51.694;6.256;2023-07-02T12:45:52;10.00;;;5.00;;
3922;SDS011;1976;51.694;6.256;2023-07-02T12:48:18;13.27;;;4.97;;
3922;SDS011;1976;51.694;6.256;2023-07-02T12:50:52;15.77;;;6.10;;
3922;SDS011;1976;51.694;6.256;2023-07-02T12:53:19;15.43;;;5.50;;
3922;SDS011;1976;51.694;6.256;2023-07-02T12:55:45;12.77;;;5.07;;
3922;SDS011;1976;51.694;6.256;2023-07-02T12:58:11;11.97;;;5.20;;
3922;SDS011;1976;51.694;6.256;2023-07-02T13:00:37;8.47;;;4.17;;
3922;SDS011;1976;51.694;6.256;2023-07-02T13:03:03;13.83;;;4.70;;
3922;SDS011;1976;51.694;6.256;2023-07-02T13:05:29;13.07;;;4.43;;
3922;SDS011;1976;51.694;6.256;2023-07-02T13:07:55;8.87;;;3.57;;
3922;SDS011;1976;51.694;6.256;2023-07-02T13:10:21;14.73;;;4.60;;
3922;SDS011;1976;51.694;6.256;2023-07-02T13:12:47;12.40;;;4.80;;
3922;SDS011;1976;51.694;6.256;2023-07-02T13:15:13;17.10;;;4.90;;
3922;SDS011;1976;51.694;6.256;2023-07-02T13:17:39;11.50;;;4.73;;
3922;SDS011;1976;51.694;6.256;2023-07-02T13:20:06;15.00;;;5.10;;
3922;SDS011;1976;51.694;6.256;2023-07-02T13:22:32;14.83;;;4.77;;
3922;SDS011;1976;51.694;6.256;2023-07-02T13:24:58;6.97;;;4.13;;
3922;SDS011;1976;51.694;6.256;2023-07-02T13:27:24;8.60;;;3.70;;
3922;SDS011;1976;51.694;6.256;2023-07-02T13:29:50;6.57;;;3.60;;
3922;SDS011;1976;51.694;6.256;2023-07-02T13:32:16;5.07;;;3.80;;
3922;SDS011;1976;51.694;6.256;2023-07-02T13:34:42;8.33;;;4.27;;
3922;SDS011;1976;51.694;6.256;2023-07-02T13:37:08;11.63;;;3.97;;
3922;SDS011;1976;51.694;6.256;2023-07-02T13:39:34;9.37;;;3.63;;
3922;SDS011;1976;51.694;6.256;2023-07-02T13:42:00;8.83;;;4.07;;
3922;SDS011;1976;51.694;6.256;2023-07-02T13:44:26;13.10;;;4.10;;
3922;SDS011;1976;51.694;6.256;2023-07-02T13:46:52;7.50;;;3.60;;
3922;SDS011;1976;51.694;6.256;2023-07-02T13:49:18;10.93;;;3.93;;
3922;SDS011;1976;51.694;6.256;2023-07-02T13:51:46;6.70;;;3.80;;
3922;SDS011;1976;51.694;6.256;2023-07-02T13:54:14;9.70;;;3.77;;
3922;SDS011;1976;51.694;6.256;2023-07-02T13:56:40;7.70;;;3.80;;
3922;SDS011;1976;51.694;6.256;2023-07-02T13:59:06;9.70;;;3.60;;
3922;SDS011;1976;51.694;6.256;2023-07-02T14:01:33;8.07;;;3.70;;
3922;SDS011;1976;51.694;6.256;2023-07-02T14:03:59;10.20;;;3.23;;
3922;SDS011;1976;51.694;6.256;2023-07-02T14:06:25;9.13;;;3.50;;
3922;SDS011;1976;51.694;6.256;2023-07-02T14:08:51;9.93;;;4.47;;
3922;SDS011;1976;51.694;6.256;2023-07-02T14:11:17;8.03;;;2.00;;
3922;SDS011;1976;51.694;6.256;2023-07-02T14:13:44;4.80;;;2.87;;
3922;SDS011;1976;51.694;6.256;2023-07-02T14:16:10;9.57;;;4.13;;
3922;SDS011;1976;51.694;6.256;2023-07-02T14:18:36;3.73;;;2.50;;
3922;SDS011;1976;51.694;6.256;2023-07-02T14:21:02;5.17;;;2.73;;
3922;SDS011;1976;51.694;6.256;2023-07-02T14:23:28;4.87;;;2.30;;
3922;SDS011;1976;51.694;6.256;2023-07-02T14:25:54;8.33;;;3.17;;
3922;SDS011;1976;51.694;6.256;2023-07-02T14:28:20;5.27;;;3.17;;
3922;SDS011;1976;51.694;6.256;2023-07-02T14:30:46;8.83;;;3.33;;
3922;SDS011;1976;51.694;6.256;2023-07-02T14:33:13;4.93;;;2.43;;
3922;SDS011;1976;51.694;6.256;2023-07-02T14:35:39;3.50;;;2.70;;
3922;SDS011;1976;51.694;6.256;2023-07-02T14:38:05;5.90;;;2.40;;
3922;SDS011;1976;51.694;6.256;2023-07-02T14:40:31;5.37;;;3.00;;
3922;SDS011;1976;51.694;6.256;2023-07-02T14:42:58;3.93;;;2.60;;
3922;SDS011;1976;51.694;6.256;2023-07-02T14:45:24;10.30;;;3.20;;
3922;SDS011;1976;51.694;6.256;2023-07-02T14:47:50;7.00;;;3.07;;
3922;SDS011;1976;51.694;6.256;2023-07-02T14:50:16;9.80;;;3.17;;
3922;SDS011;1976;51.694;6.256;2023-07-02T14:52:42;9.67;;;2.60;;
3922;SDS011;1976;51.694;6.256;2023-07-02T14:55:08;5.73;;;2.97;;
3922;SDS011;1976;51.694;6.256;2023-07-02T14:57:34;5.80;;;3.33;;
3922;SDS011;1976;51.694;6.256;2023-07-02T15:00:00;15.67;;;2.73;;
3922;SDS011;1976;51.694;6.256;2023-07-02T15:02:26;5.90;;;3.03;;
3922;SDS011;1976;51.694;6.256;2023-07-02T15:04:52;5.03;;;2.80;;